AB8KN-2 Weather Reports


Display with metric or nautical units.
time (UTC)temp
F
wind
direction
speed
MPH
gust
MPH
rain 1hr
in
rain 24hr
in
rain mn
in
humidity
%
barometer
mb
20220818161736 78 359 0.0 0.0 0.00 0.00 0.00 62 1016.9
20220818154735 77 359 0.0 0.0 0.00 0.00 0.00 66 1017.0
20220818151734 76 65 0.0 0.0 0.00 0.00 0.00 69 1017.1
20220818144733 75 63 0.0 0.0 0.00 0.00 0.00 73 1017.2
20220818141732 75 294 0.0 3.0 0.00 0.00 0.00 77 1017.1
20220818134731 74 323 0.0 4.0 0.00 0.00 0.00 85 1017.4
20220818131730 69 69 0.0 0.0 0.00 0.00 0.00 95 1017.3
20220818124729 65 69 0.0 0.0 0.00 0.00 0.00 100 1017.5
20220818121728 62 69 0.0 0.0 0.00 0.00 0.00 100 1017.4
20220818114727 60 69 0.0 0.0 0.00 0.00 0.00 100 1017.2
20220818111726 59 69 0.0 0.0 0.00 0.00 0.00 100 1017.2
20220818104725 59 69 0.0 0.0 0.00 0.00 0.00 100 1017.1
20220818101724 59 69 0.0 0.0 0.00 0.00 0.00 100 1016.9
20220818094723 60 69 0.0 0.0 0.00 0.00 0.00 100 1016.7
20220818091722 60 69 0.0 0.0 0.00 0.00 0.00 100 1016.7
20220818084721 61 69 0.0 0.0 0.00 0.00 0.00 100 1016.7
20220818081720 61 69 0.0 0.0 0.00 0.00 0.00 100 1016.5
20220818074719 62 69 0.0 0.0 0.00 0.00 0.00 99 1016.5
20220818071718 62 69 0.0 0.0 0.00 0.00 0.00 98 1016.5
20220818064717 63 69 0.0 0.0 0.00 0.00 0.00 98 1016.6
20220818061716 63 69 0.0 0.0 0.00 0.00 0.00 98 1016.6
20220818054715 63 69 0.0 0.0 0.00 0.00 0.00 98 1016.6
20220818051714 64 69 0.0 0.0 0.00 0.00 0.00 97 1016.7
20220818044713 64 69 0.0 0.0 0.00 0.00 0.00 95 1016.7
20220818041712 65 69 0.0 0.0 0.00 0.00 0.00 93 1016.7
20220818034711 66 69 0.0 0.0 0.00 0.00 0.00 91 1016.8
20220818031710 67 69 0.0 0.0 0.00 0.00 0.00 88 1016.9
20220818024709 67 69 0.0 0.0 0.00 0.00 0.00 84 1017.1
20220818021708 69 69 0.0 0.0 0.00 0.00 0.00 80 1017.2
20220818014707 70 69 0.0 0.0 0.00 0.00 0.00 76 1017.1
20220818011706 71 69 0.0 0.0 0.00 0.00 0.00 72 1016.9
20220818004705 73 69 0.0 0.0 0.00 0.00 0.00 66 1016.7
20220818001704 74 69 0.0 1.0 0.00 0.00 0.00 62 1016.7
20220817234703 75 266 0.0 0.0 0.00 0.00 0.00 58 1016.6
20220817231702 76 326 0.0 0.0 0.00 0.00 0.00 56 1016.5
20220817224701 79 11 2.0 5.0 0.00 0.00 0.00 48 1016.3
20220817221700 78 236 0.0 0.0 0.00 0.00 0.00 50 1016.2
20220817214659 79 345 0.0 3.0 0.00 0.00 0.00 48 1016.3
20220817211658 78 41 0.0 0.0 0.00 0.00 0.00 47 1016.3
20220817204657 80 41 0.0 0.0 0.00 0.00 0.00 47 1016.5
20220817201656 80 280 0.0 4.0 0.00 0.00 0.00 49 1016.6
20220817194655 77 274 0.0 6.0 0.00 0.00 0.00 56 1017.1
20220817191654 79 120 0.0 6.0 0.00 0.00 0.00 52 1017.3
20220817184653 78 53 0.0 0.0 0.00 0.00 0.00 52 1017.4
20220817181652 77 63 0.0 0.0 0.00 0.00 0.00 56 1017.8
20220817174651 77 63 1.0 0.0 0.00 0.00 0.00 54 1017.9
20220817171650 79 21 1.0 4.0 0.00 0.00 0.00 54 1018.0
20220817164649 77 77 2.0 6.0 0.00 0.00 0.00 57 1018.1